createdAt,value
2017-11-01T00:00:33.383Z,0
2017-11-01T00:01:33.996Z,0
2017-11-01T00:02:34.604Z,0
2017-11-01T00:03:35.208Z,0
2017-11-01T00:04:35.819Z,0
2017-11-01T00:05:36.454Z,0
2017-11-01T00:06:37.062Z,0
2017-11-01T00:07:37.667Z,0
2017-11-01T00:08:38.274Z,0
2017-11-01T00:09:38.882Z,0
2017-11-01T00:10:39.490Z,0
2017-11-01T00:11:40.100Z,0
2017-11-01T00:12:40.707Z,0
2017-11-01T00:13:41.320Z,0
2017-11-01T00:14:41.924Z,0
2017-11-01T00:15:42.537Z,0
2017-11-01T00:16:43.142Z,0
2017-11-01T00:17:43.747Z,0
2017-11-01T00:18:44.354Z,0
2017-11-01T00:19:44.960Z,0
2017-11-01T00:20:45.566Z,0
2017-11-01T00:21:46.175Z,0
2017-11-01T00:22:46.787Z,0
2017-11-01T00:23:47.399Z,0
2017-11-01T00:24:48.008Z,0
2017-11-01T00:25:48.618Z,0
2017-11-01T00:26:49.222Z,0
2017-11-01T00:27:49.834Z,0
2017-11-01T00:28:50.437Z,0
2017-11-01T00:29:51.048Z,0
2017-11-01T00:30:51.681Z,0
2017-11-01T00:31:52.287Z,0
2017-11-01T00:32:52.894Z,0
2017-11-01T00:33:53.501Z,0
2017-11-01T00:34:54.136Z,0
2017-11-01T00:35:54.743Z,0
2017-11-01T00:36:55.352Z,0
2017-11-01T00:37:55.956Z,0
2017-11-01T00:38:56.562Z,0
2017-11-01T00:39:57.171Z,0
2017-11-01T00:40:57.778Z,0
2017-11-01T00:41:58.393Z,0
2017-11-01T00:42:59.031Z,0
2017-11-01T00:43:59.638Z,0
2017-11-01T00:45:00.244Z,0
2017-11-01T00:46:00.850Z,0
2017-11-01T00:47:01.458Z,0
2017-11-01T00:48:02.101Z,0
2017-11-01T00:49:02.702Z,0
2017-11-01T00:50:03.308Z,0
2017-11-01T00:51:03.921Z,0
2017-11-01T00:52:04.558Z,0
2017-11-01T00:53:05.165Z,0
2017-11-01T00:54:05.772Z,0
2017-11-01T00:55:06.380Z,0
2017-11-01T00:56:06.986Z,0
2017-11-01T00:57:07.592Z,0
2017-11-01T00:58:08.200Z,0
2017-11-01T00:59:08.804Z,0
2017-11-01T01:00:09.411Z,0
2017-11-01T01:01:10.025Z,0
2017-11-01T01:02:10.638Z,0
2017-11-01T01:03:11.238Z,0
2017-11-01T01:04:11.844Z,0
2017-11-01T01:05:12.502Z,0
2017-11-01T01:06:13.112Z,0
2017-11-01T01:07:13.715Z,0
2017-11-01T01:08:14.322Z,0
2017-11-01T01:09:14.928Z,0
2017-11-01T01:10:15.542Z,0
2017-11-01T01:11:16.154Z,0
2017-11-01T01:12:16.761Z,0
2017-11-01T01:13:17.365Z,0
2017-11-01T01:14:17.971Z,0
2017-11-01T01:15:18.579Z,0
2017-11-01T01:16:19.191Z,0
2017-11-01T01:17:19.801Z,0
2017-11-01T01:18:20.436Z,0
2017-11-01T01:19:21.042Z,0
2017-11-01T01:20:21.653Z,0
2017-11-01T01:21:22.257Z,0
2017-11-01T01:22:22.869Z,0
2017-11-01T01:23:23.474Z,0
2017-11-01T01:24:24.082Z,0
2017-11-01T01:25:24.696Z,0
2017-11-01T01:26:25.300Z,0
2017-11-01T01:27:25.914Z,0
2017-11-01T01:28:26.524Z,0
2017-11-01T01:29:27.124Z,0
2017-11-01T01:30:27.736Z,0
2017-11-01T01:31:28.344Z,0
2017-11-01T01:32:28.950Z,0
2017-11-01T01:33:29.587Z,0
2017-11-01T01:34:30.198Z,0
2017-11-01T01:35:30.839Z,0
2017-11-01T01:36:31.447Z,0
2017-11-01T01:37:32.049Z,0
2017-11-01T01:38:32.663Z,0
2017-11-01T01:39:33.267Z,0
2017-11-01T01:40:33.881Z,0
2017-11-01T01:41:34.484Z,0
2017-11-01T01:42:35.092Z,0
2017-11-01T01:43:35.697Z,0
2017-11-01T01:44:36.303Z,0
2017-11-01T01:45:36.910Z,0
2017-11-01T01:46:37.515Z,0
2017-11-01T01:47:38.121Z,0
2017-11-01T01:48:38.728Z,0
2017-11-01T01:49:39.341Z,0
2017-11-01T01:50:39.944Z,0
2017-11-01T01:51:40.557Z,0
2017-11-01T01:52:41.160Z,0
2017-11-01T01:53:41.766Z,0
2017-11-01T01:54:42.377Z,0
2017-11-01T01:55:42.989Z,0
2017-11-01T01:56:43.625Z,0
2017-11-01T01:57:44.233Z,0
2017-11-01T01:58:44.872Z,0
2017-11-01T01:59:45.482Z,0
2017-11-01T02:00:46.086Z,0
2017-11-01T02:01:46.692Z,0
2017-11-01T02:02:47.296Z,0
2017-11-01T02:03:47.904Z,0
2017-11-01T02:04:48.510Z,0
2017-11-01T02:05:49.115Z,0
2017-11-01T02:06:49.724Z,0
2017-11-01T02:07:50.332Z,0
2017-11-01T02:08:50.940Z,0
2017-11-01T02:09:51.547Z,0
2017-11-01T02:10:52.186Z,0
2017-11-01T02:11:52.829Z,0
2017-11-01T02:12:53.439Z,0
2017-11-01T02:13:54.049Z,0
2017-11-01T02:14:54.652Z,0
2017-11-01T02:15:55.265Z,0
2017-11-01T02:16:55.868Z,0
2017-11-01T02:17:56.476Z,0
2017-11-01T02:18:57.081Z,0
2017-11-01T02:19:57.688Z,0
2017-11-01T02:20:58.293Z,0
2017-11-01T02:21:58.905Z,0
2017-11-01T02:22:59.510Z,0
2017-11-01T02:24:00.118Z,0
2017-11-01T02:25:00.727Z,0
2017-11-01T02:26:01.338Z,0
2017-11-01T02:27:01.941Z,0
2017-11-01T02:28:02.580Z,0
2017-11-01T02:29:03.190Z,0
2017-11-01T02:30:03.792Z,0
2017-11-01T02:31:04.404Z,0
2017-11-01T02:32:05.010Z,0
2017-11-01T02:33:05.615Z,0
2017-11-01T02:34:06.222Z,0
2017-11-01T02:35:06.829Z,0
2017-11-01T02:36:07.433Z,0
2017-11-01T02:37:08.069Z,0
2017-11-01T02:38:08.675Z,0
2017-11-01T02:39:09.280Z,0
2017-11-01T02:40:09.914Z,0
2017-11-01T02:41:10.526Z,0
2017-11-01T02:42:11.185Z,0
2017-11-01T02:43:11.810Z,0
2017-11-01T02:44:12.417Z,0
2017-11-01T02:45:13.023Z,0
2017-11-01T02:46:13.629Z,0
2017-11-01T02:47:14.234Z,0
2017-11-01T02:48:14.840Z,0
2017-11-01T02:49:15.446Z,0
2017-11-01T02:50:16.053Z,0
2017-11-01T02:51:16.658Z,0
2017-11-01T02:52:17.300Z,0
2017-11-01T02:53:17.903Z,0
2017-11-01T02:54:18.510Z,0
2017-11-01T02:55:19.119Z,0
2017-11-01T02:56:19.722Z,0
2017-11-01T02:57:20.336Z,0
2017-11-01T02:58:20.944Z,0
2017-11-01T02:59:21.553Z,0
2017-11-01T03:00:22.155Z,0
2017-11-01T03:01:22.769Z,0
2017-11-01T03:02:23.377Z,0
2017-11-01T03:03:24.020Z,0
2017-11-01T03:04:24.623Z,0
2017-11-01T03:05:25.232Z,0
2017-11-01T03:06:25.840Z,0
2017-11-01T03:07:26.444Z,0
2017-11-01T03:08:27.057Z,0
2017-11-01T03:09:27.661Z,0
2017-11-01T03:10:28.304Z,0
2017-11-01T03:11:28.908Z,0
2017-11-01T03:12:29.516Z,0
2017-11-01T03:13:30.123Z,0
2017-11-01T03:14:30.730Z,0
2017-11-01T03:15:31.339Z,0
2017-11-01T03:16:31.943Z,0
2017-11-01T03:17:32.550Z,0
2017-11-01T03:18:33.185Z,0
2017-11-01T03:19:33.791Z,0
2017-11-01T03:20:34.403Z,0
2017-11-01T03:21:35.006Z,0
2017-11-01T03:22:35.611Z,0
2017-11-01T03:23:36.245Z,0
2017-11-01T03:24:36.851Z,0
2017-11-01T03:25:37.458Z,0
2017-11-01T03:26:38.063Z,0
2017-11-01T03:27:38.675Z,0
2017-11-01T03:28:39.279Z,0
2017-11-01T03:29:39.914Z,0
2017-11-01T03:30:40.520Z,0
2017-11-01T03:31:41.127Z,0
2017-11-01T03:32:41.734Z,0
2017-11-01T03:33:42.339Z,0
2017-11-01T03:34:42.944Z,0
2017-11-01T03:35:43.552Z,0
2017-11-01T03:36:44.157Z,0
2017-11-01T03:37:44.763Z,0
2017-11-01T03:38:45.374Z,0
2017-11-01T03:39:46.010Z,0
2017-11-01T03:40:46.621Z,0
2017-11-01T03:41:47.226Z,0
2017-11-01T03:42:47.840Z,0
2017-11-01T03:43:48.448Z,0
2017-11-01T03:44:49.052Z,0
2017-11-01T03:45:49.665Z,0
2017-11-01T03:46:50.275Z,0
2017-11-01T03:47:50.874Z,0
2017-11-01T03:48:51.509Z,0
2017-11-01T03:49:52.121Z,0
2017-11-01T03:50:52.725Z,0
2017-11-01T03:51:53.331Z,0
2017-11-01T03:52:53.966Z,0
2017-11-01T03:53:54.579Z,0
2017-11-01T03:54:55.181Z,0
2017-11-01T03:55:55.815Z,0
2017-11-01T03:56:56.422Z,0
2017-11-01T03:57:57.058Z,0
2017-11-01T03:58:57.670Z,0
2017-11-01T03:59:58.274Z,0
2017-11-01T04:00:58.879Z,0
2017-11-01T04:01:59.488Z,0
2017-11-01T04:03:00.093Z,0
2017-11-01T04:04:00.700Z,0
2017-11-01T04:05:01.333Z,0
2017-11-01T04:06:01.940Z,0
2017-11-01T04:07:02.547Z,0
2017-11-01T04:08:03.155Z,0
2017-11-01T04:09:03.794Z,0
2017-11-01T04:10:04.404Z,0
2017-11-01T04:11:05.039Z,0
2017-11-01T04:12:05.645Z,0
2017-11-01T04:13:06.253Z,0
2017-11-01T04:14:06.859Z,0
2017-11-01T04:15:07.466Z,0
2017-11-01T04:16:08.071Z,0
2017-11-01T04:17:08.679Z,0
2017-11-01T04:18:09.284Z,0
2017-11-01T04:19:09.899Z,0
2017-11-01T04:20:10.528Z,0
2017-11-01T04:21:11.135Z,0
2017-11-01T04:22:11.772Z,0
2017-11-01T04:23:12.377Z,0
2017-11-01T04:24:12.984Z,0
2017-11-01T04:25:13.618Z,0
2017-11-01T04:26:14.231Z,0
2017-11-01T04:27:14.839Z,0
2017-11-01T04:28:15.442Z,0
2017-11-01T04:29:16.048Z,0
2017-11-01T04:30:16.653Z,0
2017-11-01T04:31:17.261Z,0
2017-11-01T04:32:17.866Z,0
2017-11-01T04:33:18.475Z,0
2017-11-01T04:34:19.088Z,0
2017-11-01T04:35:19.692Z,0
2017-11-01T04:36:20.300Z,0
2017-11-01T04:37:20.912Z,0
2017-11-01T04:38:21.542Z,0
2017-11-01T04:39:22.154Z,0
2017-11-01T04:40:22.758Z,0
2017-11-01T04:41:23.364Z,0
2017-11-01T04:42:23.969Z,0
2017-11-01T04:43:24.583Z,0
2017-11-01T04:44:25.184Z,0
2017-11-01T04:45:25.799Z,0
2017-11-01T04:46:26.401Z,0
2017-11-01T04:47:27.009Z,0
2017-11-01T04:48:27.617Z,0
2017-11-01T04:49:28.220Z,0
2017-11-01T04:50:28.864Z,0
2017-11-01T04:51:29.467Z,0
2017-11-01T04:52:30.072Z,0
2017-11-01T04:53:30.712Z,0
2017-11-01T04:54:31.319Z,0
2017-11-01T04:55:31.962Z,0
2017-11-01T04:56:32.568Z,0
2017-11-01T04:57:33.223Z,0
2017-11-01T04:58:33.836Z,0
2017-11-01T04:59:34.445Z,0
2017-11-01T05:00:35.048Z,0
2017-11-01T05:01:35.684Z,0
2017-11-01T05:02:36.321Z,0
2017-11-01T05:03:36.933Z,0
2017-11-01T05:04:37.535Z,0
2017-11-01T05:05:38.147Z,0
2017-11-01T05:06:38.782Z,0
2017-11-01T05:07:39.388Z,0
2017-11-01T05:08:40.031Z,0
2017-11-01T05:09:40.633Z,0
2017-11-01T05:10:41.239Z,0
2017-11-01T05:11:41.845Z,0
2017-11-01T05:12:42.458Z,0
2017-11-01T05:13:43.062Z,0
2017-11-01T05:14:43.667Z,0
2017-11-01T05:15:44.274Z,0
2017-11-01T05:16:44.884Z,0
2017-11-01T05:17:45.516Z,0
2017-11-01T05:18:46.122Z,0
2017-11-01T05:19:46.733Z,0
2017-11-01T05:20:47.338Z,0
2017-11-01T05:21:47.943Z,0
2017-11-01T05:22:48.580Z,0
2017-11-01T05:23:49.191Z,0
2017-11-01T05:24:49.795Z,0
2017-11-01T05:25:50.410Z,0
2017-11-01T05:26:51.013Z,0
2017-11-01T05:27:51.620Z,0
2017-11-01T05:28:52.225Z,0
2017-11-01T05:29:52.863Z,0
2017-11-01T05:30:53.470Z,0
2017-11-01T05:31:54.081Z,0
2017-11-01T05:32:54.685Z,0
2017-11-01T05:33:55.293Z,0
2017-11-01T05:34:55.927Z,0
2017-11-01T05:35:56.533Z,0
2017-11-01T05:36:57.139Z,0
2017-11-01T05:37:57.750Z,0
2017-11-01T05:38:58.355Z,0
2017-11-01T05:39:58.961Z,0
2017-11-01T05:40:59.571Z,0
2017-11-01T05:42:00.206Z,0
2017-11-01T05:43:00.816Z,0
2017-11-01T05:44:01.426Z,0
2017-11-01T05:45:02.028Z,0
2017-11-01T05:46:02.639Z,0
2017-11-01T05:47:03.247Z,0
2017-11-01T05:48:03.852Z,0
2017-11-01T05:49:04.460Z,0
2017-11-01T05:50:05.069Z,0
2017-11-01T05:51:05.706Z,0
2017-11-01T05:52:06.314Z,0
2017-11-01T05:53:06.957Z,0
2017-11-01T05:54:07.562Z,0
2017-11-01T05:55:08.175Z,0
2017-11-01T05:56:08.817Z,0
2017-11-01T05:57:09.422Z,0
2017-11-01T05:58:10.028Z,0
2017-11-01T05:59:10.640Z,0
2017-11-01T06:00:11.276Z,0
2017-11-01T06:01:11.883Z,4
2017-11-01T06:02:12.488Z,0
2017-11-01T06:03:13.095Z,4
2017-11-01T06:04:13.701Z,4
2017-11-01T06:05:14.336Z,4
2017-11-01T06:06:14.944Z,4
2017-11-01T06:07:15.548Z,4
2017-11-01T06:08:16.184Z,4
2017-11-01T06:09:16.796Z,4
2017-11-01T06:10:17.406Z,4
2017-11-01T06:11:18.047Z,8
2017-11-01T06:12:18.660Z,8
2017-11-01T06:13:19.290Z,4
2017-11-01T06:14:19.895Z,8
2017-11-01T06:15:20.508Z,8
2017-11-01T06:16:21.118Z,8
2017-11-01T06:17:21.722Z,12
2017-11-01T06:18:22.331Z,8
2017-11-01T06:19:22.934Z,8
2017-11-01T06:20:23.541Z,12
2017-11-01T06:21:24.148Z,12
2017-11-01T06:22:24.758Z,12
2017-11-01T06:23:25.368Z,16
2017-11-01T06:24:25.974Z,16
2017-11-01T06:25:26.585Z,20
2017-11-01T06:26:27.191Z,20
2017-11-01T06:27:27.798Z,20
2017-11-01T06:28:28.410Z,20
2017-11-01T06:29:29.014Z,20
2017-11-01T06:30:29.628Z,24
2017-11-01T06:31:30.233Z,24
2017-11-01T06:32:30.842Z,24
2017-11-01T06:33:31.451Z,24
2017-11-01T06:34:32.058Z,24
2017-11-01T06:35:32.672Z,24
2017-11-01T06:36:33.276Z,28
2017-11-01T06:37:33.884Z,28
2017-11-01T06:38:34.496Z,28
2017-11-01T06:39:35.105Z,28
2017-11-01T06:40:35.714Z,32
2017-11-01T06:41:36.321Z,32
2017-11-01T06:42:36.927Z,32
2017-11-01T06:43:37.536Z,32
2017-11-01T06:44:38.177Z,32
2017-11-01T06:45:38.782Z,36
2017-11-01T06:46:39.396Z,36
2017-11-01T06:47:40.008Z,36
2017-11-01T06:48:40.607Z,40
2017-11-01T06:49:41.251Z,40
2017-11-01T06:50:41.856Z,44
2017-11-01T06:51:42.463Z,40
2017-11-01T06:52:43.070Z,40
2017-11-01T06:53:43.684Z,44
2017-11-01T06:54:44.289Z,44
2017-11-01T06:55:44.899Z,44
2017-11-01T06:56:45.505Z,44
2017-11-01T06:57:46.117Z,44
2017-11-01T06:58:46.728Z,48
2017-11-01T06:59:47.337Z,48
2017-11-01T07:00:47.941Z,48
2017-11-01T07:01:48.554Z,48
2017-11-01T07:02:49.197Z,48
2017-11-01T07:03:49.801Z,52
2017-11-01T07:04:50.416Z,48
2017-11-01T07:05:51.028Z,52
2017-11-01T07:06:51.632Z,52
2017-11-01T07:07:52.238Z,52
2017-11-01T07:08:52.853Z,56
2017-11-01T07:09:53.457Z,52
2017-11-01T07:10:54.068Z,52
2017-11-01T07:11:54.675Z,52
2017-11-01T07:12:55.291Z,52
2017-11-01T07:13:55.897Z,56
2017-11-01T07:14:56.502Z,52
2017-11-01T07:15:57.112Z,52
2017-11-01T07:16:57.720Z,56
2017-11-01T07:17:58.355Z,52
2017-11-01T07:18:58.964Z,56
2017-11-01T07:19:59.572Z,52
2017-11-01T07:21:00.179Z,56
2017-11-01T07:22:00.788Z,56
2017-11-01T07:23:01.425Z,56
2017-11-01T07:24:02.034Z,52
2017-11-01T07:25:02.643Z,56
2017-11-01T07:26:03.249Z,56
2017-11-01T07:27:03.857Z,56
2017-11-01T07:28:04.464Z,56
2017-11-01T07:29:05.074Z,56
2017-11-01T07:30:05.682Z,56
2017-11-01T07:31:06.293Z,56
2017-11-01T07:32:06.904Z,56
2017-11-01T07:33:07.515Z,60
2017-11-01T07:34:08.120Z,56
2017-11-01T07:35:08.727Z,60
2017-11-01T07:36:09.334Z,60
2017-11-01T07:37:09.941Z,60
2017-11-01T07:38:10.555Z,60
2017-11-01T07:39:11.162Z,56
2017-11-01T07:40:11.802Z,60
2017-11-01T07:41:12.442Z,56
2017-11-01T07:42:13.049Z,56
2017-11-01T07:43:13.660Z,60
2017-11-01T07:44:14.275Z,60
2017-11-01T07:45:14.879Z,60
2017-11-01T07:46:15.488Z,60
2017-11-01T07:47:16.103Z,64
2017-11-01T07:48:16.708Z,88
2017-11-01T07:49:17.317Z,120
2017-11-01T07:50:17.930Z,128
2017-11-01T07:51:18.570Z,132
2017-11-01T07:52:19.210Z,132
2017-11-01T07:53:19.825Z,132
2017-11-01T07:54:20.434Z,132
2017-11-01T07:55:21.047Z,136
2017-11-01T07:56:21.664Z,140
2017-11-01T07:57:22.308Z,140
2017-11-01T07:58:22.921Z,140
2017-11-01T07:59:23.536Z,144
2017-11-01T08:00:24.145Z,148
2017-11-01T08:01:24.754Z,148
2017-11-01T08:02:25.364Z,152
2017-11-01T08:03:25.975Z,152
2017-11-01T08:04:26.589Z,152
2017-11-01T08:05:27.197Z,156
2017-11-01T08:06:27.806Z,156
2017-11-01T08:07:28.448Z,156
2017-11-01T08:08:29.057Z,156
2017-11-01T08:09:29.671Z,160
2017-11-01T08:10:30.281Z,164
2017-11-01T08:11:30.896Z,164
2017-11-01T08:12:31.536Z,164
2017-11-01T08:13:32.147Z,164
2017-11-01T08:14:32.794Z,168
2017-11-01T08:15:33.408Z,172
2017-11-01T08:16:34.015Z,176
2017-11-01T08:17:34.625Z,176
2017-11-01T08:18:35.237Z,176
2017-11-01T08:19:35.849Z,180
2017-11-01T08:20:36.465Z,184
2017-11-01T08:21:37.072Z,188
2017-11-01T08:22:37.685Z,192
2017-11-01T08:23:38.330Z,192
2017-11-01T08:24:38.944Z,196
2017-11-01T08:25:39.552Z,200
2017-11-01T08:26:40.195Z,200
2017-11-01T08:27:40.805Z,200
2017-11-01T08:28:41.418Z,200
2017-11-01T08:29:42.059Z,204
2017-11-01T08:30:42.678Z,208
2017-11-01T08:31:43.286Z,216
2017-11-01T08:32:43.898Z,220
2017-11-01T08:33:44.544Z,224
2017-11-01T08:34:45.153Z,224
2017-11-01T08:35:45.764Z,220
2017-11-01T08:36:46.375Z,228
2017-11-01T08:37:46.987Z,232
2017-11-01T08:38:47.600Z,232
2017-11-01T08:39:48.213Z,236
2017-11-01T08:40:48.824Z,220
2017-11-01T08:41:49.440Z,224
2017-11-01T08:42:50.049Z,236
2017-11-01T08:43:50.665Z,244
2017-11-01T08:44:51.276Z,248
2017-11-01T08:45:51.893Z,248
2017-11-01T08:46:52.502Z,248
2017-11-01T08:47:53.116Z,260
2017-11-01T08:48:53.727Z,264
2017-11-01T08:49:54.338Z,272
2017-11-01T08:50:54.951Z,276
2017-11-01T08:51:55.598Z,280
2017-11-01T08:52:56.223Z,284
2017-11-01T08:53:56.824Z,288
2017-11-01T08:54:57.442Z,296
2017-11-01T08:55:58.057Z,300
2017-11-01T08:56:58.669Z,304
2017-11-01T08:57:59.297Z,308
2017-11-01T08:58:59.899Z,316
2017-11-01T09:00:00.510Z,324
2017-11-01T09:01:01.126Z,328
2017-11-01T09:02:01.768Z,336
2017-11-01T09:03:02.379Z,332
2017-11-01T09:04:02.991Z,340
2017-11-01T09:05:03.605Z,348
2017-11-01T09:06:04.223Z,348
2017-11-01T09:07:04.833Z,356
2017-11-01T09:08:05.445Z,368
2017-11-01T09:09:06.056Z,372
2017-11-01T09:10:06.671Z,380
2017-11-01T09:11:07.290Z,388
2017-11-01T09:12:07.900Z,404
2017-11-01T09:13:08.514Z,416
2017-11-01T09:14:09.157Z,416
2017-11-01T09:15:09.772Z,428
2017-11-01T09:16:10.386Z,448
2017-11-01T09:17:10.999Z,468
2017-11-01T09:18:11.614Z,488
2017-11-01T09:19:12.264Z,504
2017-11-01T09:20:12.874Z,520
2017-11-01T09:21:13.488Z,532
2017-11-01T09:22:14.109Z,548
2017-11-01T09:23:14.758Z,564
2017-11-01T09:24:15.400Z,584
2017-11-01T09:25:16.014Z,592
2017-11-01T09:26:16.628Z,608
2017-11-01T09:27:17.243Z,620
2017-11-01T09:28:17.869Z,636
2017-11-01T09:29:18.480Z,640
2017-11-01T09:30:19.091Z,636
2017-11-01T09:31:19.703Z,616
2017-11-01T09:32:20.318Z,620
2017-11-01T09:33:20.933Z,596
2017-11-01T09:34:21.547Z,648
2017-11-01T09:35:22.163Z,684
2017-11-01T09:36:22.776Z,704
2017-11-01T09:37:23.390Z,696
2017-11-01T09:38:24.007Z,700
2017-11-01T09:39:24.619Z,708
2017-11-01T09:40:25.240Z,744
2017-11-01T09:41:25.852Z,732
2017-11-01T09:42:26.464Z,744
2017-11-01T09:43:27.083Z,772
2017-11-01T09:44:27.697Z,776
2017-11-01T09:45:28.310Z,776
2017-11-01T09:46:28.931Z,780
2017-11-01T09:47:29.542Z,800
2017-11-01T09:48:30.164Z,796
2017-11-01T09:49:30.815Z,808
2017-11-01T09:50:31.431Z,808
2017-11-01T09:51:32.050Z,800
2017-11-01T09:52:32.667Z,828
2017-11-01T09:53:33.279Z,816
2017-11-01T09:54:33.899Z,836
2017-11-01T09:55:34.511Z,860
2017-11-01T09:56:35.129Z,868
2017-11-01T09:57:35.744Z,888
2017-11-01T09:58:36.370Z,896
2017-11-01T09:59:36.981Z,904
2017-11-01T10:00:37.598Z,904
2017-11-01T10:01:38.219Z,904
2017-11-01T10:02:38.830Z,896
2017-11-01T10:03:39.453Z,912
2017-11-01T10:04:40.065Z,932
2017-11-01T10:05:40.685Z,952
2017-11-01T10:06:41.296Z,964
2017-11-01T10:07:41.941Z,968
2017-11-01T10:08:42.556Z,976
2017-11-01T10:09:43.171Z,972
2017-11-01T10:10:43.787Z,992
2017-11-01T10:11:44.405Z,1004
2017-11-01T10:12:45.021Z,1000
2017-11-01T10:13:45.637Z,996
2017-11-01T10:14:46.257Z,992
2017-11-01T10:15:46.876Z,976
2017-11-01T10:16:47.490Z,1024
2017-11-01T10:17:48.113Z,1008
2017-11-01T10:18:48.726Z,928
2017-11-01T10:19:49.351Z,984
2017-11-01T10:20:49.959Z,956
2017-11-01T10:21:50.576Z,972
2017-11-01T10:22:51.222Z,996
2017-11-01T10:23:51.840Z,916
2017-11-01T10:24:52.458Z,1036
2017-11-01T10:25:53.102Z,1056
2017-11-01T10:26:53.718Z,1092
2017-11-01T10:27:54.336Z,1064
2017-11-01T10:28:54.954Z,1052
2017-11-01T10:29:55.569Z,992
2017-11-01T10:30:56.185Z,1076
2017-11-01T10:31:56.804Z,1060
2017-11-01T10:32:57.427Z,1056
2017-11-01T10:33:58.042Z,1060
2017-11-01T10:34:58.659Z,1044
2017-11-01T10:35:59.276Z,1016
2017-11-01T10:36:59.890Z,968
2017-11-01T10:38:00.508Z,1012
2017-11-01T10:39:01.125Z,948
2017-11-01T10:40:01.742Z,956
2017-11-01T10:41:02.360Z,936
2017-11-01T10:42:02.975Z,1008
2017-11-01T10:43:03.594Z,1024
2017-11-01T10:44:04.210Z,984
2017-11-01T10:45:04.857Z,988
2017-11-01T10:46:05.473Z,984
2017-11-01T10:47:06.089Z,1008
2017-11-01T10:48:06.706Z,984
2017-11-01T10:49:07.322Z,984
2017-11-01T10:50:07.940Z,1020
2017-11-01T10:51:08.559Z,972
2017-11-01T10:52:09.176Z,1004
2017-11-01T10:53:09.790Z,980
2017-11-01T10:54:10.412Z,1008
2017-11-01T10:55:11.027Z,1004
2017-11-01T10:56:11.656Z,964
2017-11-01T10:57:12.272Z,996
2017-11-01T10:58:12.888Z,924
2017-11-01T10:59:13.502Z,936
2017-11-01T11:00:14.117Z,940
2017-11-01T11:01:14.764Z,928
2017-11-01T11:02:15.380Z,972
2017-11-01T11:03:15.997Z,924
2017-11-01T11:04:16.614Z,916
2017-11-01T11:05:17.230Z,936
2017-11-01T11:06:17.847Z,956
2017-11-01T11:07:18.462Z,972
2017-11-01T11:08:19.108Z,1004
2017-11-01T11:09:19.724Z,964
2017-11-01T11:10:20.341Z,924
2017-11-01T11:11:20.961Z,912
2017-11-01T11:12:21.576Z,968
2017-11-01T11:13:22.193Z,984
2017-11-01T11:14:22.813Z,1024
2017-11-01T11:15:23.432Z,1036
2017-11-01T11:16:24.077Z,928
2017-11-01T11:17:24.695Z,968
2017-11-01T11:18:25.312Z,956
2017-11-01T11:19:25.934Z,956
2017-11-01T11:20:26.555Z,988
2017-11-01T11:21:27.176Z,968
2017-11-01T11:22:27.793Z,988
2017-11-01T11:23:28.408Z,956
2017-11-01T11:24:29.027Z,956
2017-11-01T11:25:29.689Z,976
2017-11-01T11:26:30.300Z,940
2017-11-01T11:27:30.920Z,1056
2017-11-01T11:28:31.538Z,1012
2017-11-01T11:29:32.161Z,1076
2017-11-01T11:30:32.785Z,1092
2017-11-01T11:31:33.391Z,1080
2017-11-01T11:32:34.010Z,1080
2017-11-01T11:33:34.628Z,1088
2017-11-01T11:34:35.245Z,1092
2017-11-01T11:35:35.866Z,956
2017-11-01T11:36:36.480Z,1052
2017-11-01T11:37:37.104Z,1092
2017-11-01T11:38:37.719Z,1056
2017-11-01T11:39:38.343Z,960
2017-11-01T11:40:38.962Z,1084
2017-11-01T11:41:39.619Z,1084
2017-11-01T11:42:40.264Z,1052
2017-11-01T11:43:40.878Z,1112
2017-11-01T11:44:41.500Z,1120
2017-11-01T11:45:42.153Z,1016
2017-11-01T11:46:42.766Z,1056
2017-11-01T11:47:43.387Z,1092
2017-11-01T11:48:44.034Z,1072
2017-11-01T11:49:44.650Z,1040
2017-11-01T11:50:45.267Z,1040
2017-11-01T11:51:45.898Z,1064
2017-11-01T11:52:46.516Z,1068
2017-11-01T11:53:47.133Z,1080
2017-11-01T11:54:47.755Z,972
2017-11-01T11:55:48.406Z,1000
2017-11-01T11:56:49.027Z,1044
2017-11-01T11:57:49.640Z,1092
2017-11-01T11:58:50.265Z,1056
2017-11-01T11:59:50.879Z,1028
2017-11-01T12:00:51.537Z,1056
2017-11-01T12:01:52.162Z,952
2017-11-01T12:02:52.783Z,1048
2017-11-01T12:03:53.407Z,1056
2017-11-01T12:04:54.029Z,1096
2017-11-01T12:05:54.642Z,1104
2017-11-01T12:06:55.259Z,1068
2017-11-01T12:07:55.913Z,1056
2017-11-01T12:08:56.527Z,1064
2017-11-01T12:09:57.144Z,996
2017-11-01T12:10:57.768Z,1020
2017-11-01T12:11:58.385Z,1032
2017-11-01T12:12:59.009Z,1008
2017-11-01T12:13:59.625Z,1072
2017-11-01T12:15:00.242Z,1072
2017-11-01T12:16:00.860Z,1120
2017-11-01T12:17:01.483Z,1156
2017-11-01T12:18:02.132Z,1164
2017-11-01T12:19:02.756Z,1160
2017-11-01T12:20:03.372Z,1144
2017-11-01T12:21:03.994Z,1152
2017-11-01T12:22:04.609Z,1152
2017-11-01T12:23:05.234Z,1072
2017-11-01T12:24:05.850Z,1012
2017-11-01T12:25:06.475Z,1028
2017-11-01T12:26:07.133Z,1040
2017-11-01T12:27:07.760Z,1044
2017-11-01T12:28:08.384Z,1080
2017-11-01T12:29:09.000Z,1128
2017-11-01T12:30:09.622Z,1128
2017-11-01T12:31:10.239Z,1124
2017-11-01T12:32:10.858Z,1156
2017-11-01T12:33:11.488Z,1176
2017-11-01T12:34:12.106Z,1108
2017-11-01T12:35:12.733Z,1120
2017-11-01T12:36:13.387Z,1108
2017-11-01T12:37:14.004Z,1132
2017-11-01T12:38:14.622Z,1104
2017-11-01T12:39:15.242Z,1100
2017-11-01T12:40:15.863Z,1060
2017-11-01T12:41:16.513Z,1132
2017-11-01T12:42:17.133Z,1164
2017-11-01T12:43:17.785Z,1152
2017-11-01T12:44:18.402Z,1052
2017-11-01T12:45:19.025Z,976
2017-11-01T12:46:19.644Z,940
2017-11-01T12:47:20.265Z,964
2017-11-01T12:48:20.883Z,1008
2017-11-01T12:49:21.505Z,1080
2017-11-01T12:50:22.127Z,1180
2017-11-01T12:51:22.743Z,1236
2017-11-01T12:52:23.364Z,1128
2017-11-01T12:53:23.983Z,1012
2017-11-01T12:54:24.608Z,1028
2017-11-01T12:55:25.223Z,1100
2017-11-01T12:56:25.847Z,1192
2017-11-01T12:57:26.521Z,1208
2017-11-01T12:58:27.134Z,1248
2017-11-01T12:59:27.755Z,1256
2017-11-01T13:00:28.376Z,1268
2017-11-01T13:01:28.997Z,1284
2017-11-01T13:02:29.623Z,1140
2017-11-01T13:03:30.246Z,1020
2017-11-01T13:04:30.862Z,1144
2017-11-01T13:05:31.486Z,1112
2017-11-01T13:06:32.106Z,1108
2017-11-01T13:07:32.731Z,1100
2017-11-01T13:08:33.347Z,1092
2017-11-01T13:09:33.969Z,1248
2017-11-01T13:10:34.587Z,1224
2017-11-01T13:11:35.214Z,1148
2017-11-01T13:12:35.836Z,1132
2017-11-01T13:13:36.453Z,1108
2017-11-01T13:14:37.074Z,1024
2017-11-01T13:15:37.705Z,1172
2017-11-01T13:16:38.347Z,1160
2017-11-01T13:17:38.966Z,1148
2017-11-01T13:18:39.591Z,1136
2017-11-01T13:19:40.205Z,1072
2017-11-01T13:20:40.826Z,916
2017-11-01T13:21:41.446Z,1064
2017-11-01T13:22:42.080Z,1064
2017-11-01T13:23:42.688Z,1052
2017-11-01T13:24:43.308Z,1132
2017-11-01T13:25:43.964Z,1112
2017-11-01T13:26:44.584Z,1064
2017-11-01T13:27:45.205Z,1056
2017-11-01T13:28:45.824Z,1152
2017-11-01T13:29:46.444Z,1120
2017-11-01T13:30:47.063Z,984
2017-11-01T13:31:47.682Z,1004
2017-11-01T13:32:48.301Z,952
2017-11-01T13:33:48.920Z,880
2017-11-01T13:34:49.539Z,852
2017-11-01T13:35:50.163Z,936
2017-11-01T13:36:50.778Z,916
2017-11-01T13:37:51.397Z,904
2017-11-01T13:38:52.017Z,908
2017-11-01T13:39:52.641Z,896
2017-11-01T13:40:53.256Z,916
2017-11-01T13:41:53.874Z,964
2017-11-01T13:42:54.498Z,984
2017-11-01T13:43:55.115Z,976
2017-11-01T13:44:55.735Z,1000
2017-11-01T13:45:56.361Z,1052
2017-11-01T13:46:56.977Z,1088
2017-11-01T13:47:57.604Z,936
2017-11-01T13:48:58.221Z,1112
2017-11-01T13:49:58.842Z,1048
2017-11-01T13:50:59.460Z,1004
2017-11-01T13:52:00.079Z,1076
2017-11-01T13:53:00.705Z,1020
2017-11-01T13:54:01.330Z,1040
2017-11-01T13:55:01.943Z,1048
2017-11-01T13:56:02.562Z,964
2017-11-01T13:57:03.181Z,1028
2017-11-01T13:58:03.804Z,1008
2017-11-01T13:59:04.456Z,996
2017-11-01T14:00:05.107Z,1004
2017-11-01T14:01:05.733Z,956
2017-11-01T14:02:06.352Z,1008
2017-11-01T14:03:06.977Z,1008
2017-11-01T14:04:07.598Z,912
2017-11-01T14:05:08.218Z,936
2017-11-01T14:06:08.836Z,956
2017-11-01T14:07:09.455Z,912
2017-11-01T14:08:10.078Z,856
2017-11-01T14:09:10.700Z,828
2017-11-01T14:10:11.320Z,772
2017-11-01T14:11:11.938Z,792
2017-11-01T14:12:12.563Z,816
2017-11-01T14:13:13.217Z,780
2017-11-01T14:14:13.830Z,900
2017-11-01T14:15:14.455Z,936
2017-11-01T14:16:15.075Z,984
2017-11-01T14:17:15.698Z,1000
2017-11-01T14:18:16.319Z,984